Time;durP1;ratioP1;P1;durP2;ratioP2;P2;SDS_P1;SDS_P2;PMS_P1;PMS_P2;Temp;Humidity;BMP_temperature;BMP_pressure;BME280_temperature;BME280_humidity;BME280_pressure;Samples;Min_cycle;Max_cycle;Signal;HPM_P1;HPM_P2
2021/05/12 00:00:15;;;;;;;8.18;3.22;;;;;;;20.84;50.14;99638.72;5177875;56;1136625;-76
2021/05/12 00:05:24;;;;;;;8.98;3.05;;;;;;;20.75;50.47;99633.77;5177989;56;1137034;-71
2021/05/12 00:10:30;;;;;;;9.63;4.00;;;;;;;20.67;50.36;99628.89;5177985;56;1136641;-69
2021/05/12 00:15:36;;;;;;;4.95;3.05;;;;;;;20.59;50.74;99621.05;5178072;55;1136376;-74
2021/05/12 00:20:42;;;;;;;7.87;3.47;;;;;;;20.54;50.66;99616.80;5177961;56;1136972;-70
2021/05/12 00:25:49;;;;;;;9.93;3.52;;;;;;;20.47;50.65;99617.28;5178126;56;1136491;-72
2021/05/12 00:30:54;;;;;;;4.80;3.50;;;;;;;20.40;50.93;99619.66;5178266;56;1136682;-77
2021/05/12 00:36:01;;;;;;;16.23;4.20;;;;;;;20.36;50.77;99626.78;5178077;56;1136160;-70
2021/05/12 00:41:07;;;;;;;9.63;3.27;;;;;;;20.30;50.81;99624.90;5157480;56;1138231;-76
2021/05/12 00:46:12;;;;;;;9.25;3.55;;;;;;;20.23;50.96;99620.53;5155184;56;1136837;-75
2021/05/12 00:51:18;;;;;;;18.60;4.05;;;;;;;20.16;51.21;99626.41;5155183;56;1136692;-71
2021/05/12 00:56:24;;;;;;;11.40;3.35;;;;;;;20.09;51.36;99621.02;5154887;56;1138446;-73
2021/05/12 01:01:30;;;;;;;8.85;3.80;;;;;;;20.05;51.23;99621.61;5154921;56;1138330;-73
2021/05/12 01:06:39;;;;;;;8.05;3.72;;;;;;;19.97;51.54;99615.41;5154981;56;1136563;-73
2021/05/12 01:11:45;;;;;;;9.23;4.47;;;;;;;19.88;51.39;99617.94;5155153;56;1136824;-75
2021/05/12 01:16:52;;;;;;;4.86;3.24;;;;;;;19.85;51.63;99612.17;5155119;56;1136278;-76
2021/05/12 01:21:58;;;;;;;6.97;4.03;;;;;;;19.80;51.73;99614.11;5155234;56;1136417;-69
2021/05/12 01:27:05;;;;;;;8.18;3.83;;;;;;;19.74;51.73;99621.60;5155241;56;1136473;-71
2021/05/12 01:32:11;;;;;;;8.55;3.37;;;;;;;19.67;51.54;99610.03;5155152;56;1136368;-72
2021/05/12 01:37:17;;;;;;;8.30;3.42;;;;;;;19.68;51.77;99613.55;5155007;56;1136777;-75
2021/05/12 01:42:23;;;;;;;7.30;3.12;;;;;;;19.58;51.97;99605.33;5162212;56;1136564;-69
2021/05/12 01:47:29;;;;;;;6.67;3.65;;;;;;;19.49;51.96;99604.33;5163955;56;1136507;-74
2021/05/12 01:52:46;;;;;;;8.88;3.25;;;;;;;19.43;52.17;99607.80;5163813;56;1136385;-75
2021/05/12 01:57:52;;;;;;;8.08;3.12;;;;;;;19.36;52.17;99602.41;5164307;56;1136276;-75
2021/05/12 02:02:57;;;;;;;8.40;3.17;;;;;;;19.32;52.14;99603.31;5164878;56;1136602;-78
2021/05/12 02:08:06;;;;;;;4.17;3.02;;;;;;;19.26;52.18;99608.62;5164802;56;1136322;-72
2021/05/12 02:13:14;;;;;;;11.48;3.35;;;;;;;19.16;52.51;99603.63;5164649;56;1136276;-77
2021/05/12 02:18:20;;;;;;;11.10;3.80;;;;;;;19.15;52.26;99603.82;5164418;56;1138805;-80
2021/05/12 02:23:27;;;;;;;8.80;3.33;;;;;;;19.08;52.52;99597.09;5164426;56;1138808;-78
2021/05/12 02:28:32;;;;;;;5.87;3.47;;;;;;;19.02;52.54;99592.51;5164597;56;1136805;-77
2021/05/12 02:33:38;;;;;;;10.93;3.00;;;;;;;18.95;52.61;99598.32;5164614;56;1136740;-78
2021/05/12 02:38:44;;;;;;;11.45;3.40;;;;;;;18.88;52.96;99592.10;5164481;56;1138721;-79
2021/05/12 02:43:50;;;;;;;19.50;3.75;;;;;;;18.81;52.81;99591.21;5164530;56;1138382;-75
2021/05/12 02:48:56;;;;;;;5.40;3.53;;;;;;;18.73;53.06;99590.86;5164439;56;1138327;-68
2021/05/12 02:54:02;;;;;;;7.47;4.30;;;;;;;18.66;53.21;99589.13;5164548;56;1136837;-74
2021/05/12 02:59:07;;;;;;;13.27;3.80;;;;;;;18.60;53.14;99587.56;5164593;56;1136345;-79
2021/05/12 03:04:13;;;;;;;11.20;4.67;;;;;;;18.49;53.57;99584.02;5164356;56;1138426;-70
2021/05/12 03:09:19;;;;;;;15.23;4.00;;;;;;;18.42;53.80;99591.69;5164343;56;1138755;-80
2021/05/12 03:14:24;;;;;;;8.87;4.03;;;;;;;18.37;53.55;99583.39;5164039;55;1138466;-72
2021/05/12 03:19:30;;;;;;;6.47;3.57;;;;;;;18.34;53.58;99591.80;5164573;56;1136547;-73
2021/05/12 03:24:37;;;;;;;21.27;4.20;;;;;;;18.31;53.76;99585.01;5164498;56;1136414;-76
2021/05/12 03:29:43;;;;;;;9.83;3.97;;;;;;;18.27;53.89;99594.44;5164501;56;1138424;-78
2021/05/12 03:34:50;;;;;;;8.70;4.03;;;;;;;18.18;54.05;99587.02;5161677;56;1136292;-75
2021/05/12 03:39:56;;;;;;;9.07;3.80;;;;;;;18.12;54.19;99585.63;5164472;55;1136178;-76
2021/05/12 03:45:03;;;;;;;10.55;3.17;;;;;;;18.05;54.08;99591.41;5164549;56;1136821;-77
2021/05/12 03:50:11;;;;;;;9.33;4.10;;;;;;;18.02;54.56;99587.80;5164389;56;1138363;-82
2021/05/12 03:55:17;;;;;;;10.53;3.90;;;;;;;17.95;54.38;99593.57;5164296;56;1136761;-71
2021/05/12 04:00:24;;;;;;;12.77;3.63;;;;;;;17.90;54.68;99588.78;5163997;56;1138273;-74
2021/05/12 04:05:31;;;;;;;10.47;4.53;;;;;;;17.83;55.04;99584.70;5164091;56;1138369;-77
2021/05/12 04:10:37;;;;;;;9.23;3.80;;;;;;;17.81;54.93;99585.91;5164446;56;1138377;-84
2021/05/12 04:15:42;;;;;;;11.80;4.40;;;;;;;17.78;55.29;99597.81;5164560;56;1136656;-78
2021/05/12 04:20:48;;;;;;;19.20;4.43;;;;;;;17.80;55.15;99598.45;5164292;56;1138389;-76
2021/05/12 04:25:54;;;;;;;7.17;3.50;;;;;;;17.80;55.19;99607.81;5164069;56;1138441;-80
2021/05/12 04:31:00;;;;;;;6.90;3.75;;;;;;;17.83;55.14;99617.31;5164326;56;1136160;-72
2021/05/12 04:36:07;;;;;;;8.93;4.28;;;;;;;17.85;55.28;99613.95;5164349;56;1136766;-74
2021/05/12 04:41:12;;;;;;;8.20;3.50;;;;;;;17.86;55.53;99608.92;5163545;56;1136143;-75
2021/05/12 04:46:18;;;;;;;12.57;3.27;;;;;;;17.88;55.44;99610.36;5172217;56;1136340;-77
2021/05/12 04:51:24;;;;;;;8.67;3.50;;;;;;;17.95;55.34;99611.80;5177693;56;1138416;-77
2021/05/12 04:56:30;;;;;;;7.63;3.13;;;;;;;18.02;55.15;99607.87;5177786;56;1136344;-79
2021/05/12 05:01:36;;;;;;;9.27;3.40;;;;;;;18.07;55.21;99607.59;5177873;56;1136386;-76
2021/05/12 05:06:42;;;;;;;9.80;3.63;;;;;;;18.13;55.11;99612.72;5177807;56;1136359;-79
2021/05/12 05:11:48;;;;;;;14.37;3.97;;;;;;;18.23;55.17;99611.38;5178139;56;1136554;-79
2021/05/12 05:16:54;;;;;;;8.37;4.63;;;;;;;18.37;55.06;99608.31;5177744;56;1138489;-75
2021/05/12 05:22:01;;;;;;;12.33;3.72;;;;;;;18.53;54.74;99612.08;5178053;56;1136554;-76
2021/05/12 05:27:07;;;;;;;12.75;4.20;;;;;;;18.73;54.91;99612.29;5177633;56;1138822;-69
2021/05/12 05:32:13;;;;;;;20.00;4.70;;;;;;;18.93;54.61;99608.44;5177607;56;1138431;-73
2021/05/12 05:37:36;;;;;;;9.93;3.30;;;;;;;19.19;54.32;99615.81;5177639;56;1138432;-80
2021/05/12 05:43:07;;;;;;;5.05;3.22;;;;;;;19.36;53.08;99618.50;5177774;56;1136668;-75
2021/05/12 05:48:28;;;;;;;11.88;3.58;;;;;;;19.46;53.37;99613.59;5177435;56;1136684;-74
2021/05/12 05:53:52;;;;;;;10.57;4.23;;;;;;;19.56;53.06;99619.45;5182859;56;1138703;-72
2021/05/12 05:59:17;;;;;;;8.58;4.22;;;;;;;19.60;52.80;99612.67;5147186;56;1138872;-75
2021/05/12 06:04:41;;;;;;;8.73;3.97;;;;;;;19.74;52.79;99624.28;5178012;56;1136932;-79
2021/05/12 06:10:05;;;;;;;8.00;3.60;;;;;;;19.93;53.00;99621.38;5177597;56;1136687;-74
2021/05/12 06:15:29;;;;;;;3.83;3.20;;;;;;;20.14;52.29;99622.59;5177664;56;1136702;-82
2021/05/12 06:20:53;;;;;;;8.20;4.37;;;;;;;20.26;51.58;99638.92;5190484;56;1136146;-73
2021/05/12 06:26:22;;;;;;;5.85;4.00;;;;;;;20.43;51.58;99633.52;5167262;56;1136227;-77
2021/05/12 06:31:41;;;;;;;12.43;4.20;;;;;;;20.51;50.86;99631.14;5177178;56;1136707;-78
2021/05/12 06:37:05;;;;;;;13.22;4.15;;;;;;;20.55;51.48;99637.25;5177248;56;1138818;-84
2021/05/12 06:42:28;;;;;;;6.45;3.70;;;;;;;20.68;51.39;99634.58;5100647;56;1138356;-77
2021/05/12 06:47:34;;;;;;;14.30;4.47;;;;;;;20.83;51.51;99641.61;5112245;56;1136371;-81
2021/05/12 06:52:40;;;;;;;14.63;4.87;;;;;;;20.99;51.40;99644.70;5153434;54;1138515;-75
2021/05/12 06:57:46;;;;;;;8.25;4.12;;;;;;;21.22;51.71;99647.53;5153691;56;1138722;-78
2021/05/12 07:02:52;;;;;;;8.10;4.25;;;;;;;21.38;51.10;99656.50;5153765;56;1136347;-79
2021/05/12 07:07:58;;;;;;;8.62;3.94;;;;;;;21.59;51.32;99656.23;5153907;56;1136667;-75
2021/05/12 07:13:03;;;;;;;5.55;4.00;;;;;;;21.75;50.90;99651.73;5153953;56;1136470;-79
2021/05/12 07:18:10;;;;;;;9.40;4.15;;;;;;;22.00;51.25;99657.24;5153924;56;1136527;-73
2021/05/12 07:23:23;;;;;;;10.78;4.80;;;;;;;22.23;50.23;99666.16;5153615;56;1136433;-82
2021/05/12 07:28:29;;;;;;;8.35;4.22;;;;;;;22.34;49.88;99659.25;5153565;54;1138753;-75
2021/05/12 07:33:35;;;;;;;12.93;4.58;;;;;;;22.43;49.78;99662.02;5153921;54;1136360;-81
2021/05/12 07:38:40;;;;;;;12.18;4.53;;;;;;;22.62;49.69;99665.60;5153656;56;1138823;-74
2021/05/12 07:43:46;;;;;;;9.05;4.67;;;;;;;22.86;49.37;99666.20;5153367;56;1138877;-83
2021/05/12 07:48:52;;;;;;;11.38;4.80;;;;;;;22.91;48.62;99665.55;5154031;54;1136489;-72
2021/05/12 07:53:58;;;;;;;15.93;4.87;;;;;;;23.08;49.19;99672.02;5154643;56;1138284;-75
2021/05/12 07:59:03;;;;;;;5.10;4.00;;;;;;;23.24;49.07;99666.06;5154249;56;1138798;-75
2021/05/12 08:04:09;;;;;;;14.93;4.25;;;;;;;23.42;48.12;99671.50;5154660;56;1136326;-77
2021/05/12 08:09:14;;;;;;;8.45;3.80;;;;;;;23.56;48.00;99673.56;5154402;56;1138948;-78
2021/05/12 08:14:21;;;;;;;11.40;4.33;;;;;;;23.75;47.67;99678.45;5154734;54;1136524;-78
2021/05/12 08:19:27;;;;;;;9.88;3.75;;;;;;;23.88;46.50;99670.72;5154288;56;1138710;-77
2021/05/12 08:24:33;;;;;;;8.25;4.20;;;;;;;24.01;47.33;99664.63;5153227;54;1136319;-76
2021/05/12 08:29:43;;;;;;;18.98;4.55;;;;;;;24.18;46.51;99667.53;5153724;56;1136474;-74
2021/05/12 08:34:48;;;;;;;10.65;4.10;;;;;;;24.28;46.33;99667.04;5153919;54;1138507;-75
2021/05/12 08:39:55;;;;;;;11.28;4.64;;;;;;;24.47;46.81;99663.21;5171726;56;1138808;-75
2021/05/12 08:45:01;;;;;;;9.03;4.40;;;;;;;24.51;46.13;99663.88;5138266;56;1138494;-75
2021/05/12 08:50:10;;;;;;;13.20;3.92;;;;;;;24.64;45.83;99667.44;5153893;56;1136423;-76
2021/05/12 08:55:16;;;;;;;12.23;4.55;;;;;;;24.66;46.37;99670.74;5152388;56;1138525;-76
2021/05/12 09:00:22;;;;;;;13.88;5.47;;;;;;;24.75;46.26;99670.73;5152539;55;1138623;-77
2021/05/12 09:05:30;;;;;;;21.77;4.40;;;;;;;24.98;46.06;99663.20;5152587;56;1138488;-74
2021/05/12 09:10:35;;;;;;;8.75;5.05;;;;;;;25.16;46.65;99655.80;5152784;56;1138723;-74
2021/05/12 09:15:42;;;;;;;15.90;4.65;;;;;;;25.20;44.66;99661.58;5153055;56;1136207;-73
2021/05/12 09:20:48;;;;;;;18.75;4.80;;;;;;;25.24;45.15;99660.85;5152935;56;1138314;-77
2021/05/12 09:25:58;;;;;;;11.20;4.55;;;;;;;25.36;44.94;99659.48;5152783;56;1138316;-76
2021/05/12 09:31:09;;;;;;;17.70;6.22;;;;;;;25.39;44.35;99652.78;5153088;56;1138735;-79
2021/05/12 09:36:28;;;;;;;;;;;;;;;25.48;44.67;99645.97;5156523;56;1138417;-73
2021/05/12 09:41:36;;;;;;;11.15;5.17;;;;;;;25.52;43.35;99654.71;5167147;56;973755;-76
2021/05/12 09:46:43;;;;;;;9.38;5.33;;;;;;;25.60;44.62;99663.02;5153213;56;1136298;-76
2021/05/12 09:51:50;;;;;;;11.43;5.05;;;;;;;25.77;43.95;99657.72;5153525;56;1136136;-76
2021/05/12 09:56:57;;;;;;;10.88;5.37;;;;;;;25.86;43.81;99660.34;5165979;56;1138499;-78
2021/05/12 10:02:05;;;;;;;11.83;5.67;;;;;;;25.98;43.52;99667.08;5143273;56;1138365;-74
2021/05/12 10:07:25;;;;;;;10.45;5.72;;;;;;;26.03;43.56;99658.53;5154314;56;1138302;-76
2021/05/12 10:12:31;;;;;;;9.33;5.60;;;;;;;26.14;43.27;99663.08;5154565;56;1138386;-75
2021/05/12 10:17:37;;;;;;;7.22;5.28;;;;;;;26.16;42.32;99668.27;5154569;56;1136319;-76
2021/05/12 10:22:44;;;;;;;17.45;7.37;;;;;;;26.27;43.15;99670.95;5154966;56;1136267;-76
2021/05/12 10:27:51;;;;;;;10.88;5.37;;;;;;;26.46;43.13;99672.12;5154999;56;1138467;-74
2021/05/12 10:32:59;;;;;;;14.47;5.40;;;;;;;26.69;42.87;99670.66;5157284;56;1138586;-75
2021/05/12 10:38:06;;;;;;;13.62;5.37;;;;;;;26.75;42.78;99666.13;5143935;56;1138664;-74
2021/05/12 10:48:48;;;;;;;10.53;5.30;;;;;;;27.00;41.81;99661.17;5155359;56;1136475;-69
2021/05/12 10:53:57;;;;;;;9.45;5.35;;;;;;;27.10;41.87;99655.89;5155140;56;1138565;-74
2021/05/12 10:59:17;;;;;;;10.93;4.60;;;;;;;27.17;41.24;99659.81;5154030;56;1136351;-76
2021/05/12 11:04:21;;;;;;;91.15;81.92;;;;;;;27.28;41.64;99658.34;5152203;56;1138292;-75
2021/05/12 11:09:45;;;;;;;15.75;6.65;;;;;;;27.42;41.50;99651.20;5153496;56;1140497;-75
2021/05/12 11:15:02;;;;;;;11.88;5.25;;;;;;;27.54;41.18;99663.59;5069211;57;1138356;-76
2021/05/12 11:20:20;;;;;;;8.90;5.03;;;;;;;27.64;40.54;99658.89;5068782;57;1138338;-74
2021/05/12 11:25:38;;;;;;;7.53;5.90;;;;;;;27.74;39.76;99651.41;5068723;57;1136242;-74
2021/05/12 11:36:17;;;;;;;13.53;7.53;;;;;;;27.66;40.14;99660.26;5068700;57;1138375;-72
2021/05/12 11:41:25;;;;;;;13.35;7.37;;;;;;;27.66;40.35;99662.16;5064658;57;1138855;-74
2021/05/12 11:46:34;;;;;;;16.60;7.42;;;;;;;27.74;40.68;99657.66;5068810;57;1138998;-75
2021/05/12 11:51:45;;;;;;;10.82;6.75;;;;;;;27.84;40.72;99660.49;5068581;57;1138974;-74
2021/05/12 11:56:57;;;;;;;24.02;13.22;;;;;;;27.84;41.21;99662.39;5068558;57;1138448;-72
2021/05/12 12:02:11;;;;;;;;;;;;;;;27.93;41.95;99648.66;5072075;57;1140897;-74
2021/05/12 12:07:15;;;;;;;10.80;5.77;;;;;;;28.13;41.19;99638.00;5082579;57;973743;-69
2021/05/12 12:12:21;;;;;;;11.95;6.53;;;;;;;28.21;41.22;99642.21;5068692;57;1136470;-75
2021/05/12 12:17:29;;;;;;;14.60;6.15;;;;;;;28.20;40.42;99631.05;5068411;57;1138467;-74
2021/05/12 12:22:35;;;;;;;11.68;6.67;;;;;;;28.33;41.13;99634.72;5068446;57;1138733;-75
2021/05/12 12:27:44;;;;;;;16.45;6.25;;;;;;;28.48;40.70;99625.89;5068541;57;1138377;-75
2021/05/12 12:32:50;;;;;;;14.23;5.72;;;;;;;28.54;41.07;99622.97;5068449;57;1139064;-74
2021/05/12 12:37:56;;;;;;;12.95;4.85;;;;;;;28.61;40.47;99618.66;5067623;57;1138415;-75
2021/05/12 12:43:02;;;;;;;18.42;6.22;;;;;;;28.59;40.27;99625.72;5068176;57;1138970;-75
2021/05/12 12:48:08;;;;;;;10.38;6.05;;;;;;;28.64;39.65;99618.97;5075882;55;1138487;-74
2021/05/12 12:53:19;;;;;;;13.28;5.75;;;;;;;28.74;40.35;99618.76;5153005;56;1138534;-73
2021/05/12 12:58:24;;;;;;;10.38;6.65;;;;;;;28.88;40.86;99624.89;5153233;56;1138421;-75
2021/05/12 13:03:33;;;;;;;16.52;9.05;;;;;;;28.90;40.68;99620.02;5153949;56;1138793;-71
2021/05/12 13:08:39;;;;;;;9.38;6.67;;;;;;;28.93;39.72;99620.86;5154016;56;1138392;-73
2021/05/12 13:13:48;;;;;;;9.05;5.92;;;;;;;28.86;39.83;99622.18;5154194;56;1136169;-77
2021/05/12 13:19:03;;;;;;;9.13;5.25;;;;;;;28.89;39.75;99620.27;5154424;56;1136186;-74
2021/05/12 13:24:12;;;;;;;10.58;5.40;;;;;;;29.01;40.34;99619.57;5154659;56;1136396;-75
2021/05/12 13:29:19;;;;;;;16.15;5.50;;;;;;;28.98;39.81;99615.47;5150313;56;1138555;-74
2021/05/12 13:34:28;;;;;;;9.68;4.65;;;;;;;29.03;39.59;99620.92;5154058;56;1138793;-74
2021/05/12 13:39:36;;;;;;;39.73;5.17;;;;;;;29.08;38.19;99610.62;5149465;56;1136372;-75
2021/05/12 13:44:40;;;;;;;9.13;4.47;;;;;;;29.11;38.90;99604.66;5154251;56;1138314;-75
2021/05/12 13:49:47;;;;;;;9.75;5.80;;;;;;;29.17;38.30;99600.89;5154472;56;1136200;-76
2021/05/12 13:55:03;;;;;;;17.98;5.53;;;;;;;29.16;38.79;99599.79;5154674;56;1136729;-75
2021/05/12 14:00:31;;;;;;;12.07;4.53;;;;;;;29.05;38.87;99595.63;5152684;56;1138334;-77
2021/05/12 14:05:18;;;;;;;8.85;4.70;;;;;;;29.11;39.04;99591.58;5148926;56;1138461;-72
2021/05/12 14:10:26;;;;;;;7.45;3.87;;;;;;;29.22;38.81;99593.27;5153204;56;1136171;-78
2021/05/12 14:15:58;;;;;;;7.58;4.60;;;;;;;29.32;37.43;99581.09;5153477;56;1136208;-77
2021/05/12 14:20:41;;;;;;;10.38;4.60;;;;;;;29.38;37.61;99585.47;5148076;56;1136383;-75
2021/05/12 14:25:47;;;;;;;12.25;5.50;;;;;;;29.47;37.97;99577.11;5153268;56;1138382;-75
2021/05/12 14:30:55;;;;;;;6.67;4.15;;;;;;;29.45;38.50;99571.65;5149477;56;1138492;-74
2021/05/12 14:36:00;;;;;;;21.68;4.42;;;;;;;29.51;36.91;99568.66;5153402;56;1136354;-74
2021/05/12 14:41:07;;;;;;;7.94;4.00;;;;;;;29.59;36.68;99560.53;5153403;56;1138480;-78
2021/05/12 14:46:12;;;;;;;5.95;3.52;;;;;;;29.69;36.10;99557.84;5153572;56;1136427;-76
2021/05/12 14:51:21;;;;;;;7.00;4.55;;;;;;;29.64;35.15;99554.54;5153278;56;1136365;-74
2021/05/12 15:02:05;;;;;;;5.07;2.67;;;;;;;29.74;35.30;99538.78;5154037;56;1138473;-72
2021/05/12 15:06:55;;;;;;;7.47;2.92;;;;;;;29.82;35.17;99535.52;5149081;56;1136264;-74
2021/05/12 15:12:01;;;;;;;11.03;3.52;;;;;;;29.83;34.17;99528.98;5155316;56;1136366;-73
2021/05/12 15:17:06;;;;;;;4.10;3.08;;;;;;;29.83;34.12;99533.07;5155147;56;1139054;-73
2021/05/12 15:22:12;;;;;;;6.35;2.98;;;;;;;29.77;33.37;99526.53;5155314;56;1136392;-71
2021/05/12 15:27:18;;;;;;;5.12;2.87;;;;;;;29.64;33.43;99524.56;5155385;55;1136492;-75
2021/05/12 15:32:24;;;;;;;17.50;3.27;;;;;;;29.59;34.30;99522.38;5155154;56;1136190;-74
2021/05/12 15:37:30;;;;;;;6.87;3.37;;;;;;;29.58;34.12;99522.11;5154900;56;1138326;-76
2021/05/12 15:42:35;;;;;;;9.50;3.30;;;;;;;29.58;34.75;99520.20;5152706;56;1136443;-76
2021/05/12 15:47:42;;;;;;;4.83;3.00;;;;;;;29.59;34.37;99516.94;5150729;56;1136386;-74
2021/05/12 15:52:48;;;;;;;10.03;3.30;;;;;;;29.58;35.15;99518.84;5147502;56;1136519;-72
2021/05/12 15:57:54;;;;;;;6.35;3.12;;;;;;;29.58;35.08;99522.92;5152600;56;1138548;-74
2021/05/12 16:03:00;;;;;;;14.93;3.77;;;;;;;29.59;35.25;99523.75;5152771;56;1136622;-74
2021/05/12 16:08:07;;;;;;;7.20;3.25;;;;;;;29.53;35.56;99522.08;5152944;56;1138847;-73
2021/05/12 16:13:13;;;;;;;11.03;3.65;;;;;;;29.43;35.23;99517.42;5152731;56;1136449;-75
2021/05/12 16:18:18;;;;;;;10.50;4.80;;;;;;;29.24;36.05;99517.58;5152156;56;1138592;-73
2021/05/12 16:23:27;;;;;;;23.83;7.97;;;;;;;29.01;36.24;99527.83;5083558;56;1138509;-73
2021/05/12 16:28:31;;;;;;;11.95;3.67;;;;;;;28.83;36.25;99520.63;5061769;56;1138681;-74
2021/05/12 16:33:37;;;;;;;15.88;4.17;;;;;;;28.64;36.42;99518.83;5108176;55;1138824;-75
2021/05/12 16:38:44;;;;;;;14.25;3.75;;;;;;;28.42;36.35;99518.92;5153972;56;1138654;-76
2021/05/12 16:43:50;;;;;;;18.45;4.70;;;;;;;28.25;37.14;99519.62;5120428;55;1138534;-74
2021/05/12 16:48:58;;;;;;;20.08;5.67;;;;;;;28.15;37.30;99519.48;5057700;56;1138441;-71
2021/05/12 16:54:06;;;;;;;17.52;3.60;;;;;;;28.05;37.51;99512.06;5169306;56;1138505;-73
2021/05/12 16:59:12;;;;;;;12.40;3.08;;;;;;;27.90;37.67;99518.17;5137583;56;1138605;-71
2021/05/12 17:04:17;;;;;;;8.93;3.17;;;;;;;27.74;38.13;99512.29;5152490;56;1138678;-73
2021/05/12 17:09:30;;;;;;;7.70;3.10;;;;;;;27.58;38.71;99511.30;5152987;56;1136762;-73
2021/05/12 17:14:32;;;;;;;52.00;6.75;;;;;;;27.47;39.21;99517.67;5152323;56;1136645;-74
2021/05/12 17:19:38;;;;;;;17.23;5.08;;;;;;;27.43;39.09;99514.34;5152674;56;1138924;-76
2021/05/12 17:24:45;;;;;;;34.50;7.75;;;;;;;27.41;39.65;99520.02;5152620;56;1138713;-72
2021/05/12 17:29:51;;;;;;;19.65;7.87;;;;;;;27.33;39.63;99509.62;5152612;56;1138511;-73
2021/05/12 17:34:59;;;;;;;27.40;8.38;;;;;;;27.33;40.06;99506.91;5152630;56;1138495;-72
2021/05/12 17:40:07;;;;;;;20.92;7.53;;;;;;;27.27;40.05;99514.16;5152687;56;1138677;-74
2021/05/12 17:45:14;;;;;;;43.85;17.95;;;;;;;27.28;40.47;99524.48;5152932;56;1138816;-72
2021/05/12 17:50:21;;;;;;;26.10;6.35;;;;;;;27.21;40.84;99512.44;5152553;56;1141018;-73
2021/05/12 17:55:28;;;;;;;20.00;4.35;;;;;;;27.12;41.13;99523.45;5152591;56;1138675;-71
2021/05/12 18:00:36;;;;;;;16.10;4.50;;;;;;;27.04;41.41;99529.30;5151411;56;1138817;-77
2021/05/12 18:05:47;;;;;;;11.75;3.67;;;;;;;26.78;41.43;99525.91;5154735;56;1138771;-74
2021/05/12 18:10:59;;;;;;;19.65;5.85;;;;;;;26.47;41.95;99528.69;5161699;56;1138244;-74
2021/05/12 18:21:31;;;;;;;14.93;4.47;;;;;;;26.03;43.60;99539.30;5161554;56;1138438;-73
2021/05/12 18:26:37;;;;;;;12.82;4.60;;;;;;;26.06;43.77;99536.11;5161254;56;1138579;-76
2021/05/12 18:31:42;;;;;;;9.20;3.80;;;;;;;26.14;44.13;99535.69;5156856;56;1138640;-75
2021/05/12 18:36:49;;;;;;;19.75;4.40;;;;;;;26.14;43.97;99539.76;5161824;56;1136613;-73
2021/05/12 18:41:55;;;;;;;35.95;11.38;;;;;;;25.99;44.10;99534.06;5161641;56;1138410;-75
2021/05/12 18:47:04;;;;;;;70.87;15.13;;;;;;;25.91;44.04;99535.30;5162004;56;1140863;-74
2021/05/12 18:52:09;;;;;;;42.70;13.75;;;;;;;25.73;44.40;99540.91;5157179;55;1140669;-75
2021/05/12 18:57:15;;;;;;;22.73;9.83;;;;;;;25.55;44.76;99542.40;5162058;56;1141155;-77
2021/05/12 19:02:21;;;;;;;12.78;5.22;;;;;;;25.42;44.87;99548.09;5162047;56;1138671;-76
2021/05/12 19:07:33;;;;;;;9.55;5.45;;;;;;;24.98;45.16;99554.45;5164690;56;1138569;-74
2021/05/12 19:12:40;;;;;;;292.37;19.90;;;;;;;24.85;46.30;99547.38;5175541;56;1136425;-75
2021/05/12 19:17:44;;;;;;;18.05;7.47;;;;;;;24.79;46.68;99546.13;5174864;56;1142699;-75
2021/05/12 19:23:04;;;;;;;17.70;9.15;;;;;;;24.79;47.35;99547.48;5170925;56;1138231;-74
2021/05/12 19:44:01;;;;;;;13.30;9.78;;;;;;;24.63;48.79;99556.28;5175580;56;1140572;-73
2021/05/12 19:49:06;;;;;;;18.85;10.05;;;;;;;24.56;49.34;99557.77;5120858;56;1138404;-76
2021/05/12 19:54:14;;;;;;;13.40;9.30;;;;;;;24.44;49.99;99560.98;5098345;57;1141009;-72
2021/05/12 19:59:20;;;;;;;20.00;9.00;;;;;;;24.03;50.83;99560.41;5094011;56;1138805;-74
2021/05/12 20:04:27;;;;;;;17.05;10.98;;;;;;;23.64;51.84;99561.25;5078606;56;1138780;-76
2021/05/12 20:09:58;;;;;;;15.45;10.68;;;;;;;23.34;52.81;99553.59;5096941;56;1140692;-74
2021/05/12 20:14:53;;;;;;;9.53;8.43;;;;;;;23.30;53.56;99551.87;5151313;55;1140606;-72
2021/05/12 20:20:03;;;;;;;13.10;7.42;;;;;;;22.98;54.82;99559.78;5154574;56;1136738;-75
2021/05/12 20:25:08;;;;;;;15.55;7.95;;;;;;;22.98;54.82;99559.78;5152186;56;1249561;-73
2021/05/12 20:30:14;;;;;;;12.00;8.53;;;;;;;22.72;54.81;99560.31;5154511;56;1138863;-73
2021/05/12 20:40:49;;;;;;;12.40;8.65;;;;;;;22.60;55.51;99547.78;5154598;56;1138454;-74
2021/05/12 20:45:52;;;;;;;14.65;9.15;;;;;;;22.46;55.62;99553.77;5154376;56;1138319;-73
2021/05/12 20:50:58;;;;;;;12.15;8.60;;;;;;;22.44;55.93;99558.58;5154558;56;1138995;-76
2021/05/12 20:56:05;;;;;;;25.97;8.43;;;;;;;22.51;56.00;99558.52;5154658;56;1138483;-73
2021/05/12 21:01:11;;;;;;;10.05;8.15;;;;;;;22.55;55.89;99558.39;5154656;56;1138553;-74
2021/05/12 21:06:17;;;;;;;29.52;15.48;;;;;;;22.60;56.09;99556.69;5154442;56;1138280;-75
2021/05/12 21:11:23;;;;;;;11.83;8.58;;;;;;;22.55;55.78;99555.69;5150113;56;1140786;-74
2021/05/12 21:16:29;;;;;;;13.38;8.25;;;;;;;22.20;55.63;99552.11;5154483;56;1138200;-75
2021/05/12 21:21:38;;;;;;;16.05;8.50;;;;;;;22.14;56.33;99552.17;5154407;56;1138976;-73
2021/05/12 21:26:43;;;;;;;12.43;9.50;;;;;;;22.04;56.13;99541.34;5154235;56;1138256;-74
2021/05/12 21:31:48;;;;;;;12.63;8.63;;;;;;;22.02;56.32;99533.99;5154409;56;1138353;-75
2021/05/12 21:36:54;;;;;;;10.68;7.22;;;;;;;21.90;56.25;99536.22;5154511;56;1138272;-73
2021/05/12 21:42:00;;;;;;;13.28;8.55;;;;;;;21.96;56.46;99532.16;5154260;56;1138257;-74
2021/05/12 21:47:07;;;;;;;16.07;8.50;;;;;;;22.03;56.56;99528.09;5154392;56;1138628;-74
2021/05/12 21:52:12;;;;;;;21.60;9.40;;;;;;;21.97;56.32;99529.77;5154618;56;1138544;-75
2021/05/12 21:57:18;;;;;;;12.35;9.13;;;;;;;21.91;56.33;99529.27;5154379;56;1138628;-74
2021/05/12 22:02:23;;;;;;;15.35;9.40;;;;;;;21.74;56.15;99532.16;5154373;56;1138740;-74
2021/05/12 22:33:30;;;;;;;76.87;32.38;;;;;;;21.40;56.91;99512.66;4984078;57;1140534;-74
2021/05/12 22:38:35;;;;;;;22.98;10.38;;;;;;;21.28;57.38;99517.57;5130883;57;1140404;-75
2021/05/12 22:43:41;;;;;;;18.32;7.42;;;;;;;21.10;57.01;99514.18;4984670;57;1141006;-74
2021/05/12 22:48:47;;;;;;;10.38;5.45;;;;;;;20.92;56.61;99516.73;5131051;56;1138425;-75
2021/05/12 22:53:53;;;;;;;8.58;5.85;;;;;;;20.80;56.32;99514.36;5131597;56;1138674;-75
2021/05/12 22:58:59;;;;;;;8.40;5.00;;;;;;;20.61;55.78;99517.41;5131464;57;1136230;-75
2021/05/12 23:04:05;;;;;;;8.28;5.75;;;;;;;20.53;55.59;99521.63;5131372;57;1136513;-73
2021/05/12 23:09:11;;;;;;;13.15;7.30;;;;;;;20.47;55.37;99518.45;5132076;57;1136324;-75
2021/05/12 23:14:17;;;;;;;15.10;6.47;;;;;;;20.40;55.52;99519.78;5127704;56;1138926;-74
2021/05/12 23:19:23;;;;;;;9.10;5.42;;;;;;;20.30;55.32;99513.97;5154984;56;1138400;-75
2021/05/12 23:24:31;;;;;;;7.17;5.00;;;;;;;20.19;55.27;99510.53;5155382;56;1136325;-74
2021/05/12 23:29:36;;;;;;;31.30;5.53;;;;;;;19.99;54.86;99503.31;5154984;56;1136365;-74
2021/05/12 23:34:43;;;;;;;33.00;4.90;;;;;;;19.90;54.77;99501.83;5154946;56;1138699;-74
2021/05/12 23:39:50;;;;;;;10.25;4.47;;;;;;;19.81;54.62;99492.33;5154906;56;1138405;-73
2021/05/12 23:44:56;;;;;;;13.98;5.05;;;;;;;19.72;54.25;99494.88;5154781;56;1138455;-75
2021/05/12 23:50:01;;;;;;;5.00;4.42;;;;;;;19.63;54.45;99492.08;5154945;56;1138562;-73
